Flight Track Log - Related Links

Times and Time Zones

All times are in EDT time to prevent confusion due to time zone crossing. See the SWA757 flight status page for this flight to view local times or setup timezone preferences in your user account.

Time Position Orientation Groundspeed Altitude Reporting Facility
EDT Latitude Longitude Course Direction KTS MPH feet Rate Location/Type
Wed 11:31:53 PM 37.4000 -121.9667 141° Southeast 168 193 2,200  Level Northern Cal TRACON
Wed 11:32:53 PM 37.4500 -121.9667 360° North 237 273 4,700 1,450 Climbing Northern Cal TRACON
Wed 11:33:53 PM 37.4167 -121.8833 117° Southeast 258 297 5,100 1,080 Climbing Northern Cal TRACON
Wed 11:35:23 PM 37.3464 -121.8083 140° Southeast 249 287 7,400 1,947 Climbing Oakland Center
Wed 11:36:24 PM 37.2919 -121.7472 138° Southeast 264 304 10,000 2,066 Climbing Oakland Center
Wed 11:37:00 PM 36.8971 -121.4179 141° Southeast  Level Estimated
Wed 11:37:25 PM 37.2247 -121.6753 140° Southeast 317 365 11,600  Level Oakland Center
Wed 11:38:26 PM 37.1492 -121.5914 138° Southeast 357 411 14,800 3,246 Climbing Oakland Center
Wed 11:39:27 PM 37.0625 -121.4975 139° Southeast 383 441 18,200 3,197 Climbing Oakland Center
Wed 11:40:28 PM 36.9794 -121.4036 138° Southeast 400 460 21,300 2,705 Climbing Oakland Center
Wed 11:41:29 PM 36.8897 -121.3036 138° Southeast 427 491 23,700 2,459 Climbing Oakland Center
Wed 11:42:30 PM 36.7858 -121.1931 140° Southeast 450 518 26,300 2,262 Climbing Oakland Center
Wed 11:43:31 PM 36.6883 -121.0886 139° Southeast 461 531 28,300 2,164 Climbing Oakland Center
Wed 11:44:32 PM 36.5889 -120.9811 139° Southeast 470 541 30,700 2,262 Climbing Oakland Center
Wed 11:45:33 PM 36.4906 -120.8742 139° Southeast 471 542 32,900 2,213 Climbing Oakland Center
Wed 11:46:34 PM 36.3947 -120.7675 138° Southeast 465 535 35,200 2,066 Climbing Oakland Center
Wed 11:47:35 PM 36.2997 -120.6642 139° Southeast 456 525 37,100 1,623 Climbing Oakland Center
Wed 11:48:36 PM 36.2033 -120.5653 140° Southeast 450 518 38,500 934 Climbing Oakland Center
Wed 11:49:37 PM 36.1064 -120.4589 138° Southeast 475 547 39,000 246 Climbing Oakland Center
Wed 11:50:38 PM 36.0089 -120.3564 140° Southeast 460 529 39,000  Level Oakland Center
Wed 11:51:39 PM 35.9147 -120.2597 140° Southeast 442 509 39,000  Level Oakland Center
Wed 11:52:40 PM 35.8192 -120.1586 139° Southeast 448 516 39,000  Level Oakland Center
Wed 11:53:41 PM 35.7236 -120.0603 140° Southeast 445 512 39,000  Level Oakland Center
Wed 11:54:41 PM 35.6047 -119.9414 141° Southeast 454 522 39,000  Level Oakland Center
Wed 11:55:42 PM 35.5000 -119.8517 145° Southeast 454 522 39,000  Level Oakland Center
Wed 11:56:56 PM 35.3733 -119.7419 145° Southeast 461 531 39,000  Level Los Angeles Center
Wed 11:57:57 PM 35.2681 -119.6514 145° Southeast 461 531 39,000  Level Los Angeles Center
Wed 11:58:59 PM 35.1631 -119.5622 145° Southeast 458 527 39,000  Level Los Angeles Center
Thu 12:00:00 AM 35.0586 -119.4717 145° Southeast 459 528 39,000  Level Los Angeles Center
Thu 12:01:02 AM 34.9531 -119.3831 145° Southeast 461 531 39,000  Level Los Angeles Center
Thu 12:02:03 AM 34.8483 -119.2931 145° Southeast 461 531 39,000  Level Los Angeles Center
Thu 12:03:05 AM 34.7408 -119.2031 145° Southeast 466 536 39,000  Level Los Angeles Center
Thu 12:04:06 AM 34.6214 -119.1039 146° Southeast 467 537 39,000  Level Los Angeles Center
Thu 12:05:08 AM 34.5164 -119.0153 145° Southeast 462 532 39,000  Level Los Angeles Center
Thu 12:06:09 AM 34.4111 -118.9281 146° Southeast 461 531 39,000  Level Los Angeles Center
Thu 12:07:11 AM 34.3108 -118.8350 143° Southeast 456 525 39,000 -293 Level Los Angeles Center
Thu 12:08:12 AM 34.2156 -118.7333 139° Southeast 456 525 38,400 -738 Descending Los Angeles Center
Thu 12:09:13 AM 34.1203 -118.6311 138° Southeast 458 527 37,500 -1,024 Descending Los Angeles Center
Thu 12:10:15 AM 34.0083 -118.5128 139° Southeast 444 511 36,300 -1,024 Descending Los Angeles Center
Thu 12:11:16 AM 33.9139 -118.4089 138° Southeast 454 522 35,400 -1,415 Descending Los Angeles Center
Thu 12:12:18 AM 33.8258 -118.2978 134° Southeast 458 527 33,400 -1,805 Descending Los Angeles Center
Thu 12:13:19 AM 33.7406 -118.1856 132° Southeast 438 504 31,700 -1,918 Descending Los Angeles Center
Thu 12:14:20 AM 33.6569 -118.0817 134° Southeast 430 495 29,500 -2,195 Descending Los Angeles Center
Thu 12:15:22 AM 33.5736 -117.9833 135° Southeast 420 483 27,200 -2,244 Descending Los Angeles Center
Thu 12:16:23 AM 33.4956 -117.8900 135° Southeast 399 459 24,900 -2,146 Descending Los Angeles Center
Thu 12:17:25 AM 33.4194 -117.8003 135° Southeast 386 444 22,800 -2,087 Descending Los Angeles Center
Thu 12:17:55 AM 33.3833 -117.7500 131° Southeast 372 428 21,700 -2,066 Descending Southern California TRACON
Thu 12:18:26 AM 33.3478 -117.7136 139° Southeast 370 426 20,700 -1,935 Descending Los Angeles Center
Thu 12:19:28 AM 33.2775 -117.6308 135° Southeast 358 412 18,700 -2,090 Descending Los Angeles Center
Thu 12:19:55 AM 33.2333 -117.5833 138° Southeast 344 396 17,600 -2,069 Descending Southern California TRACON
Thu 12:20:55 AM 33.1667 -117.5000 134° Southeast 331 381 15,700 -2,083 Descending Southern California TRACON
Thu 12:21:56 AM 33.1000 -117.4500 148° Southeast 317 365 13,400 -2,041 Descending Southern California TRACON
Thu 12:22:32 AM 33.0742 -117.4189 135° Southeast 317 365 12,400 -2,165 Descending Los Angeles Center
Thu 12:23:33 AM 32.9872 -117.3506 147° Southeast 314 361 9,900 -2,071 Descending Los Angeles Center
Thu 12:23:56 AM 32.9667 -117.3333 145° Southeast 297 342 9,500 -1,084 Descending Southern California TRACON
Thu 12:24:56 AM 32.9000 -117.2833 148° Southeast 263 303 8,400 -1,260 Descending Southern California TRACON
Thu 12:25:36 AM 32.8636 -117.2506 143° Southeast 265 305 7,400 -593 Descending Los Angeles Center
Thu 12:27:38 AM 32.7886 -117.1081 122° Southeast 257 296 6,800 -340 Descending Los Angeles Center
Thu 12:27:57 AM 32.7833 -117.0833 104° East 231 266 6,600 -835 Descending Southern California TRACON
Thu 12:28:57 AM 32.7667 -117.0167 107° East 212 244 5,700 -800 Descending Southern California TRACON
Thu 12:29:57 AM 32.7500 -116.9500 107° East 209 241 5,000 -850 Descending Southern California TRACON
Thu 12:30:57 AM 32.7167 -116.9167 140° Southeast 215 247 4,000 -600 Descending Southern California TRACON
Thu 12:31:57 AM 32.6833 -116.9500 220° Southwest 198 228 3,800 -450 Descending Southern California TRACON
Thu 12:32:57 AM 32.6833 -117.0000 270° West 172 198 3,100 -850 Descending Southern California TRACON
Thu 12:33:57 AM 32.7000 -117.0500 292° West 160 184 2,100 -800 Descending Southern California TRACON
Thu 12:34:57 AM 32.7167 -117.1000 292° West 147 169 1,500 -589 Descending Southern California TRACON
Thu 12:35:49 AM 32.7186 -117.1303 274° West 146 168 1,000 -584 Descending Los Angeles Center
Thu 12:36:50 AM 32.7314 -117.1747 289° West 139 160 400 -590 Descending Los Angeles Center

Login

Don't have an account? Register now (free) for customized features, flight alerts, and more!